Latest Coastal Weather Observations for Port Macquarie Airport

IDN60701

Issued at 6:25 pm EDT Sunday 23 November 2014 (issued every 10 minutes, with the page automatically refreshed every 10 minutes)

About coastal observations | Map of coastal stations | Coastal observations for NSW | Marine services | Other Formats
Station Details ID: 060139 Name: PORT MACQUARIE AIRPORT AWS Lat: -31.43 Lon: 152.87 Height: 4.2 m
Data from the previous 72 hours. | See also: Recent months at Port Macquarie Airport
Date/Time
EDT
Temp

°C
Wind Pressure Rain
since 9am
mm
Weather Cloud Vis
km
Sea
Height
m
Swell
Dir
 
Speed
knots
Gust
knots
hPa Trend Height
m
Period
s
Dir
23/06:00pm 26.7 NNW 4 7 1011.4 - 0.0 - Cloudy 10 - - - -
23/05:30pm 27.3 NNE 8 11 1010.4 - 0.0 - - 10 - - - -
23/05:00pm 27.2 NNE 9 13 1010.5 - 0.0 - - 10 - - - -
23/04:30pm 26.7 N 6 8 1010.2 - 0.0 - - 10 - - - -
23/04:00pm 27.7 NE 9 13 1009.6 - 0.0 - - 10 - - - -
23/03:30pm 28.7 ENE 12 15 1009.2 - 0.0 - - 10 - - - -
23/03:00pm 30.1 E 11 14 1009.5 - 0.0 - - 10 - - - -
23/02:30pm 31.0 ENE 11 15 1009.9 - 0.0 - - 10 - - - -
23/02:00pm 30.8 ENE 11 14 1010.0 - 0.0 - - 10 - - - -
23/01:30pm 31.5 ENE 10 14 1010.1 - 0.0 - - 10 - - - -
23/01:00pm 30.9 E 11 15 1010.5 - 0.0 - - 10 - - - -
23/12:30pm 31.1 ENE 10 13 1010.8 - 0.0 - - 10 - - - -
23/12:00pm 30.9 E 9 12 1011.2 - 0.0 - - 10 - - - -
23/11:30am 31.5 E 9 12 1011.2 - 0.0 - - 10 - - - -
23/11:00am 30.3 E 9 11 1011.7 - 0.0 - - 10 - - - -
23/10:30am 28.8 NE 10 12 1011.9 - 0.0 - - 10 - - - -
23/10:00am 28.3 ENE 9 11 1012.2 - 0.0 - - 10 - - - -
23/09:30am 27.5 ENE 8 10 1012.3 - 0.0 - - 10 - - - -
23/09:00am 27.6 N 8 11 1012.4 - 0.0 - - 10 - - - -
23/08:30am 26.3 N 9 11 1012.6 - 0.0 - - 10 - - - -
23/08:00am 24.8 N 7 9 1012.6 - 0.0 - - 10 - - - -
23/07:52am 24.4 N 8 10 1012.5 - 0.0 - Partly cloudy 10 - - - -
23/07:51am 24.4 N 8 10 1012.5 - 0.0 - Partly cloudy 10 - - - -
23/07:30am 24.3 N 9 11 1012.5 - 0.0 - Cloudy 10 - - - -
23/07:00am 23.2 N 8 10 1012.1 - 0.0 - Cloudy 10 - - - -
23/06:30am 23.0 N 7 10 1011.8 - 0.0 - Cloudy 10 - - - -
23/06:00am 23.1 N 8 11 1011.9 - 0.0 - Cloudy 10 - - - -
23/05:30am 23.2 N 7 9 1011.8 - 0.0 - Cloudy 10 - - - -
23/05:00am 23.2 NNE 7 9 1011.4 - 0.0 - Cloudy 10 - - - -
23/04:30am 23.2 NNE 9 12 1011.7 - 0.0 - Cloudy 10 - - - -
23/04:00am 23.0 NNE 8 11 1012.2 - 0.0 - Cloudy 10 - - - -
23/03:30am 23.0 N 4 5 1012.6 - 0.0 - Cloudy 10 - - - -
23/03:00am 23.0 N 5 7 1012.4 - 0.0 - Cloudy 10 - - - -
23/02:30am 22.8 N 7 9 1012.5 - 0.0 - Cloudy 10 - - - -
23/02:00am 22.6 N 7 9 1012.6 - 0.0 - Cloudy 10 - - - -
23/01:30am 22.3 N 7 10 1012.8 - 0.0 - Cloudy 10 - - - -
23/01:10am 22.2 N 7 8 1013.1 - 0.0 - Cloudy 10 - - - -
23/01:09am 22.1 N 7 8 1013.1 - 0.0 - Cloudy 10 - - - -
23/01:00am 22.0 N 6 8 1013.3 - 0.0 - Cloudy 10 - - - -
23/12:30am 21.9 N 8 10 1013.6 - 0.0 - Partly cloudy 10 - - - -
23/12:00am 22.0 N 7 8 1013.8 - 0.0 - - 10 - - - -
 
Date/Time
EDT
Temp

°C
Wind Pressure Rain
since 9am
mm
Weather Cloud Vis
km
Sea
Height
m
Swell
Dir
 
Speed
knots
Gust
knots
hPa Trend Height
m
Period
s
Dir
22/11:30pm 22.3 N 7 9 1014.1 - 0.0 - - 10 - - - -
22/11:19pm 22.5 N 7 9 1014.2 - 0.0 - Partly cloudy 10 - - - -
22/11:00pm 22.8 N 7 9 1014.3 - 0.0 - Partly cloudy 10 - - - -
22/10:30pm 22.9 N 9 12 1014.3 - 0.0 - Cloudy 10 - - - -
22/10:00pm 22.8 N 11 13 1014.2 - 0.0 - Cloudy 10 - - - -
22/09:30pm 22.7 N 9 13 1014.0 - 0.0 - Cloudy 10 - - - -
22/09:00pm 22.6 N 10 12 1013.7 - 0.0 - Mostly cloudy 10 - - - -
22/08:30pm 22.7 NNE 9 13 1013.5 - 0.0 - Cloudy 10 - - - -
22/08:07pm 22.5 NNE 9 11 1013.5 - 0.0 - Cloudy 10 - - - -
22/08:00pm 22.6 NNE 9 11 1013.4 - 0.0 - - 10 - - - -
22/07:30pm 22.6 NNE 8 10 1013.3 - 0.0 - Cloudy 10 - - - -
22/07:11pm 22.5 NE 7 11 1013.1 - 0.0 - Cloudy 10 - - - -
22/07:00pm 22.6 NNE 8 11 1012.9 - 0.0 - Cloudy 5 - - - -
22/06:53pm 22.8 NE 7 10 1012.9 - 0.0 - Cloudy 5 - - - -
22/06:30pm 22.9 NE 8 10 1012.6 - 0.0 - Partly cloudy 10 - - - -
22/06:29pm 22.8 NE 8 11 1012.6 - 0.0 - Partly cloudy 10 - - - -
22/06:00pm 24.1 ENE 9 11 1012.4 - 0.0 - - 10 - - - -
22/05:30pm 25.2 SE 5 7 1012.0 - 0.0 - - 10 - - - -
22/05:00pm 24.8 ESE 6 8 1011.9 - 0.0 - - 10 - - - -
22/04:30pm 25.0 SSE 8 10 1012.1 - 0.0 - - 10 - - - -
22/04:00pm 24.7 SSE 12 16 1012.1 - 0.0 - - 10 - - - -
22/03:30pm 24.2 SSE 13 18 1012.2 - 0.0 - - 10 - - - -
22/03:00pm 25.1 S 15 18 1012.1 - 0.0 - - 10 - - - -
22/02:30pm 25.2 SSE 14 17 1012.2 - 0.0 - - 10 - - - -
22/02:00pm 25.7 S 15 18 1012.3 - 0.0 - - 10 - - - -
22/01:30pm 26.8 S 14 18 1012.4 - 0.0 - - 10 - - - -
22/01:00pm 26.2 SSE 14 17 1012.7 - 0.0 - - 10 - - - -
22/12:30pm 26.7 S 13 16 1012.9 - 0.0 - - 10 - - - -
22/12:00pm 26.9 SE 12 15 1013.1 - 0.0 - - 10 - - - -
22/11:30am 27.6 SE 12 15 1013.3 - 0.0 - - 10 - - - -
22/11:00am 28.2 SSE 10 13 1013.6 - 0.0 - Partly cloudy 10 - - - -
22/10:30am 28.3 S 9 13 1013.7 - 0.0 - Partly cloudy 10 - - - -
22/10:00am 26.7 SSW 8 12 1013.9 - 0.0 - - 10 - - - -
22/09:30am 26.4 SSW 9 12 1014.0 - 0.0 - Partly cloudy 10 - - - -
22/09:00am 25.7 WSW 11 16 1014.1 - 0.0 - Mostly clear 10 - - - -
22/08:30am 25.5 SW 11 15 1014.0 - 0.0 - - 10 - - - -
22/08:00am 24.7 SW 14 19 1013.7 - 0.0 - - 10 - - - -
22/07:30am 24.4 SW 10 13 1013.5 - 0.0 - Partly cloudy 10 - - - -
22/07:00am 23.5 SW 7 10 1013.3 - 0.0 - Partly cloudy 10 - - - -
22/06:30am 22.0 SW 4 6 1013.0 - 0.0 - Cloudy 10 - - - -
22/06:00am 21.3 SW 2 4 1012.8 - 0.0 - Mostly cloudy 10 - - - -
22/05:30am 20.9 CALM 0 0 1012.3 - 0.0 - Cloudy 10 - - - -
22/05:00am 20.7 SE 4 5 1011.8 - 0.0 - Partly cloudy 10 - - - -
22/04:30am 20.3 S 3 5 1011.2 - 0.0 - - 9 - - - -
22/04:00am 20.9 SE 5 6 1010.8 - 0.0 - - 10 - - - -
22/03:30am 21.4 S 4 5 1010.1 - 0.0 - - 10 - - - -
22/03:00am 21.6 S 5 6 1009.9 - 0.0 - - 8 - - - -
22/02:30am 22.0 SSE 6 8 1010.0 - 0.0 - - 9 - - - -
22/02:09am 22.2 SSE 5 8 1010.0 - 0.0 - Partly cloudy 7 - - - -
22/02:08am 22.3 SSE 5 8 1010.0 - 0.0 - Partly cloudy 7 - - - -
22/02:00am 22.0 S 5 6 1010.1 - 0.0 - Partly cloudy 7 - - - -
22/01:30am 22.4 S 2 5 1010.1 - 0.0 - Partly cloudy 8 - - - -
22/01:00am 22.9 N 6 8 1009.7 - 0.0 - Partly cloudy 9 - - - -
22/12:42am 23.1 N 4 6 1009.5 - 0.0 - Partly cloudy 8 - - - -
22/12:41am 23.1 N 4 6 1009.5 - 0.0 - Partly cloudy 8 - - - -
22/12:35am 23.1 N 5 6 1009.4 - 0.0 - Partly cloudy 8 - - - -
22/12:34am 23.1 N 5 6 1009.3 - 0.0 - Partly cloudy 8 - - - -
22/12:30am 23.0 NNE 5 7 1009.3 - 0.0 - Partly cloudy 8 - - - -
22/12:00am 22.9 ENE 6 7 1009.4 - 0.0 - Cloudy 7 - - - -
 
Date/Time
EDT
Temp

°C
Wind Pressure Rain
since 9am
mm
Weather Cloud Vis
km
Sea
Height
m
Swell
Dir
 
Speed
knots
Gust
knots
hPa Trend Height
m
Period
s
Dir
21/11:41pm 23.0 NE 6 8 1009.4 - 0.0 - Partly cloudy 8 - - - -
21/11:40pm 23.1 NE 6 8 1009.4 - 0.0 - Partly cloudy 9 - - - -
21/11:30pm 23.4 NE 7 11 1009.2 - 0.0 - Partly cloudy 10 - - - -
21/11:00pm 23.4 NNE 9 14 1009.0 - 0.0 - Partly cloudy 10 - - - -
21/10:30pm 23.6 NNE 9 13 1008.7 - 0.0 - - 10 - - - -
21/10:00pm 23.6 NE 7 10 1008.7 - 0.0 - - 10 - - - -
21/09:30pm 24.1 NNE 7 9 1008.3 - 0.0 - - 10 - - - -
21/09:00pm 24.1 NE 9 11 1008.2 - 0.0 - Mostly cloudy 9 - - - -
21/08:30pm 25.3 NNE 10 13 1008.2 - 0.0 - - 10 - - - -
21/08:00pm 26.1 NNE 12 17 1007.9 - 0.0 - - 10 - - - -
21/07:30pm 26.4 E 4 6 1008.1 - 0.0 - Cloudy 10 - - - -
21/07:00pm 26.7 NE 8 11 1006.9 - 0.0 - - 10 - - - -
21/06:30pm 27.6 NNE 12 17 1006.6 - 0.0 - - 10 - - - -
21/06:00pm 27.1 ENE 7 9 1006.0 - 0.0 - Mostly cloudy 10 - - - -
21/05:30pm 28.2 NNE 8 11 1005.7 - 0.0 - - 10 - - - -
21/05:00pm 28.1 NNE 10 14 1005.5 - 0.0 - - 10 - - - -
21/04:30pm 29.8 NNE 11 19 1005.5 - 0.0 - - 10 - - - -
21/04:00pm 29.6 NNE 15 20 1005.6 - 0.0 - - 10 - - - -
21/03:30pm 30.7 N 15 24 1005.7 - 0.0 - - 10 - - - -
21/03:00pm 28.2 NE 8 10 1006.6 - 0.0 - Mostly cloudy 10 - - - -
21/02:30pm 27.4 NE 10 15 1006.4 - 0.0 - Partly cloudy 10 - - - -
21/02:00pm 29.9 NE 12 17 1006.5 - 0.0 - - 10 - - - -
21/01:30pm 31.2 NE 11 15 1006.8 - 0.0 - - 10 - - - -
21/01:00pm 30.5 NNE 13 17 1007.3 - 0.0 - - 10 - - - -
21/12:30pm 31.7 NE 11 16 1007.8 - 0.0 - - 10 - - - -
21/12:00pm 30.6 NE 11 14 1008.3 - 0.0 - - 10 - - - -
21/11:30am 29.2 NNE 11 14 1008.8 - 0.0 - - 10 - - - -
21/11:00am 28.9 NE 9 12 1009.1 - 0.0 - - 10 - - - -
21/10:30am 27.3 NE 8 11 1009.4 - 0.0 - Partly cloudy 10 - - - -
21/10:00am 24.9 ENE 5 6 1009.7 - 0.0 - - 10 - - - -
21/09:30am 25.4 NNE 5 7 1009.9 - 0.0 - - 10 - - - -
21/09:00am 25.9 N 9 12 1009.7 - 0.0 - Mostly cloudy 10 - - - -
21/08:30am 25.2 N 7 8 1010.1 - 0.0 - - 10 - - - -
21/08:00am 24.7 N 8 11 1010.0 - 0.0 - - 10 - - - -
21/07:30am 23.9 N 9 11 1009.8 - 0.0 - - 10 - - - -
21/07:00am 22.9 N 9 12 1009.8 - 0.0 - - 10 - - - -
21/06:30am 22.1 N 8 11 1009.8 - 0.0 - Partly cloudy 10 - - - -
21/06:00am 21.5 N 7 10 1009.7 - 0.0 - - 10 - - - -
21/05:30am 21.3 N 6 8 1009.3 - 0.0 - - 10 - - - -
21/05:00am 21.5 N 7 10 1009.3 - 0.0 - - 10 - - - -
21/04:30am 21.8 N 5 7 1009.2 - 0.0 - - 10 - - - -
21/04:00am 22.1 N 9 12 1009.1 - 0.0 - - 10 - - - -
21/03:30am 22.2 N 8 11 1009.0 - 0.0 - - 10 - - - -
21/03:00am 22.8 NNE 10 14 1008.9 - 0.0 - Cloudy 10 - - - -
21/02:30am 22.5 N 7 11 1009.8 - 0.0 - - 10 - - - -
21/02:00am 22.3 N 8 11 1009.6 - 0.0 - - 10 - - - -
21/01:30am 22.3 N 8 10 1009.7 - 0.0 - - 10 - - - -
21/01:00am 22.5 N 9 12 1010.1 - 0.0 - - 10 - - - -
21/12:30am 22.7 N 10 13 1010.4 - 0.0 - Partly cloudy 10 - - - -
21/12:00am 23.0 N 9 13 1010.7 - 0.0 - Mostly clear 10 - - - -
 
Date/Time
EDT
Temp

°C
Wind Pressure Rain
since 9am
mm
Weather Cloud Vis
km
Sea
Height
m
Swell
Dir
 
Speed
knots
Gust
knots
hPa Trend Height
m
Period
s
Dir
20/11:30pm 23.3 N 9 13 1010.9 - 0.0 - Partly cloudy 10 - - - -
20/11:00pm 23.4 N 9 12 1011.2 - 0.0 - Partly cloudy 10 - - - -
20/10:30pm 23.6 N 9 13 1011.2 - 0.0 - Partly cloudy 10 - - - -
20/10:00pm 23.6 N 8 11 1011.3 - 0.0 - - 10 - - - -
20/09:30pm 23.6 N 10 14 1011.0 - 0.0 - Partly cloudy 10 - - - -
20/09:00pm 23.6 NNE 7 11 1011.0 - 0.0 - Mostly cloudy 10 - - - -
20/08:30pm 23.6 NNE 8 12 1010.5 - 0.0 - Partly cloudy 10 - - - -
20/08:00pm 23.8 NNE 10 14 1010.2 - 0.0 - - 10 - - - -
20/07:30pm 24.1 NNE 12 16 1010.0 - 0.0 - - 10 - - - -
20/07:00pm 24.7 NNE 10 16 1009.8 - 0.0 - - 10 - - - -
20/06:30pm 25.4 NNE 11 15 1009.5 - 0.0 - - 10 - - - -

Other Formats:

Comma delimited format used in spreadsheet applications
http://www.bom.gov.au/fwo/IDN60701/IDN60701.94786.axf

JavaScript Object Notation format (JSON) in row-major order
http://www.bom.gov.au/fwo/IDN60701/IDN60701.94786.json